Global Enterprise — 3FCJ6 — position and weather

sailwx.info

Track history (hours):
 
Tides and Currents Weather Stations Pressure Air Temp Water Temp Dewpoint Dewpoint Depression Visibility Wind Speed Wind Dir Waves Ship Positions

Global Enterprise

Last reported at 2017-Mar-30 12:20 UTC. Time now 2017-Apr-25 06:37 UTC.
Position N 01°16' E 104°08'.
Warning: this ship's position is 25 days out of date.

Length 290 m; draft 17.9 m.

Type: Ship. MMSI: 356308000.

Date/timePositionNaut miles runAvg speedWind from/ knotsBaromVisibWave heightAir tempDewpointWater temp
2017-Mar-30 12:20N 01°16' E 104°08'810.4
2017-Mar-30 11:34N 01°15' E 103°60'3 2.9
2017-Mar-30 10:31N 01°16' E 103°57'0 0.1
2017-Mar-30 09:31N 01°16' E 103°57'0 0.1
2017-Mar-30 08:25N 01°16' E 103°57'0 0.1
2017-Mar-30 07:22N 01°16' E 103°57'0 0.1
2017-Mar-30 06:31N 01°16' E 103°57'0 0.1
2017-Mar-30 05:28N 01°16' E 103°57'0 0.1
2017-Mar-30 04:31N 01°16' E 103°57'0 0.1
2017-Mar-30 03:31N 01°16' E 103°57'0 0.0
2017-Mar-30 02:22N 01°16' E 103°57'0 0.1
2017-Mar-30 01:25N 01°16' E 103°57'0 0.1
2017-Mar-30 00:28N 01°16' E 103°57'0 0.3
2017-Mar-29 23:31N 01°16' E 103°57'0 0.1
2017-Mar-29 22:28N 01°16' E 103°57'0 0.2
2017-Mar-29 21:32N 01°16' E 103°57'2 2.2
2017-Mar-29 20:33N 01°14' E 103°57'1010.2
2017-Mar-29 19:33N 01°10' E 103°48'7 6.9
2017-Mar-29 18:33N 01°05' E 103°42'6 5.6
2017-Mar-29 17:33N 01°04' E 103°37'6 6.3
2017-Mar-29 16:33N 01°07' E 103°32'1010.0
2017-Mar-29 15:33N 01°13' E 103°23'1510.4
2017-Mar-29 14:08N 01°22' E 103°12'610.2
2017-Mar-29 13:33N 01°26' E 103°07'40 9.4
2017-Mar-29 09:17N 01°45' E 102°32'7 9.1
2017-Mar-29 08:33N 01°48' E 102°26'9 8.9
2017-Mar-29 07:33N 01°52' E 102°18'  
Track history (hours):
 
Tides and Currents Weather Stations Pressure Air Temp Water Temp Dewpoint Dewpoint Depression Visibility Wind Speed Wind Dir Waves Ship Positions

Global Enterprise

Last reported at 2017-Mar-30 12:20 UTC. Time now 2017-Apr-25 06:37 UTC.
Position N 01°16' E 104°08'.
Warning: this ship's position is 25 days out of date.

Length 290 m; draft 17.9 m.

Type: Ship. MMSI: 356308000.

Date/timePositionNaut miles runAvg speedWind from/ knotsBaromVisibWave heightAir tempDewpointWater temp
2017-Mar-30 12:20N 01°16' E 104°08'810.4
2017-Mar-30 11:34N 01°15' E 103°60'3 2.9
2017-Mar-30 10:31N 01°16' E 103°57'0 0.1
2017-Mar-30 09:31N 01°16' E 103°57'0 0.1
2017-Mar-30 08:25N 01°16' E 103°57'0 0.1
2017-Mar-30 07:22N 01°16' E 103°57'0 0.1
2017-Mar-30 06:31N 01°16' E 103°57'0 0.1
2017-Mar-30 05:28N 01°16' E 103°57'0 0.1
2017-Mar-30 04:31N 01°16' E 103°57'0 0.1
2017-Mar-30 03:31N 01°16' E 103°57'0 0.0
2017-Mar-30 02:22N 01°16' E 103°57'0 0.1
2017-Mar-30 01:25N 01°16' E 103°57'0 0.1
2017-Mar-30 00:28N 01°16' E 103°57'0 0.3
2017-Mar-29 23:31N 01°16' E 103°57'0 0.1
2017-Mar-29 22:28N 01°16' E 103°57'0 0.2
2017-Mar-29 21:32N 01°16' E 103°57'2 2.2
2017-Mar-29 20:33N 01°14' E 103°57'1010.2
2017-Mar-29 19:33N 01°10' E 103°48'7 6.9
2017-Mar-29 18:33N 01°05' E 103°42'6 5.6
2017-Mar-29 17:33N 01°04' E 103°37'6 6.3
2017-Mar-29 16:33N 01°07' E 103°32'1010.0
2017-Mar-29 15:33N 01°13' E 103°23'1510.4
2017-Mar-29 14:08N 01°22' E 103°12'610.2
2017-Mar-29 13:33N 01°26' E 103°07'40 9.4
2017-Mar-29 09:17N 01°45' E 102°32'7 9.1
2017-Mar-29 08:33N 01°48' E 102°26'9 8.9
2017-Mar-29 07:33N 01°52' E 102°18'  

Dump ship's entire track history